Map

Track Data

SID SEASON NUMBER BASIN SUBBASIN NAME ISO_TIME NATURE LAT LON WMO_WIND WMO_PRES WMO_AGENCY TRACK_TYPE DIST2LAND LANDFALL IFLAG USA_AGENCY USA_ATCF_ID USA_LAT USA_LON USA_RECORD USA_STATUS USA_WIND USA_PRES USA_SSHS USA_R34_NE USA_R34_SE USA_R34_SW USA_R34_NW USA_R50_NE USA_R50_SE USA_R50_SW USA_R50_NW USA_R64_NE USA_R64_SE USA_R64_SW USA_R64_NW USA_POCI USA_ROCI USA_RMW USA_EYE TOKYO_LAT TOKYO_LON TOKYO_GRADE TOKYO_WIND TOKYO_PRES TOKYO_R50_DIR TOKYO_R50_LONG TOKYO_R50_SHORT TOKYO_R30_DIR TOKYO_R30_LONG TOKYO_R30_SHORT TOKYO_LAND CMA_LAT CMA_LON CMA_CAT CMA_WIND CMA_PRES HKO_LAT HKO_LON HKO_CAT HKO_WIND HKO_PRES NEWDELHI_LAT NEWDELHI_LON NEWDELHI_GRADE NEWDELHI_WIND NEWDELHI_PRES NEWDELHI_CI NEWDELHI_DP NEWDELHI_POCI REUNION_LAT REUNION_LON REUNION_TYPE REUNION_WIND REUNION_PRES REUNION_TNUM REUNION_CI REUNION_RMW REUNION_R34_NE REUNION_R34_SE REUNION_R34_SW REUNION_R34_NW REUNION_R50_NE REUNION_R50_SE REUNION_R50_SW REUNION_R50_NW REUNION_R64_NE REUNION_R64_SE REUNION_R64_SW REUNION_R64_NW BOM_LAT BOM_LON BOM_TYPE BOM_WIND BOM_PRES BOM_TNUM BOM_CI BOM_RMW BOM_R34_NE BOM_R34_SE BOM_R34_SW BOM_R34_NW BOM_R50_NE BOM_R50_SE BOM_R50_SW BOM_R50_NW BOM_R64_NE BOM_R64_SE BOM_R64_SW BOM_R64_NW BOM_ROCI BOM_POCI BOM_EYE BOM_POS_METHOD BOM_PRES_METHOD NADI_LAT NADI_LON NADI_CAT NADI_WIND NADI_PRES WELLINGTON_LAT WELLINGTON_LON WELLINGTON_WIND WELLINGTON_PRES DS824_LAT DS824_LON DS824_STAGE DS824_WIND DS824_PRES TD9636_LAT TD9636_LON TD9636_STAGE TD9636_WIND TD9636_PRES TD9635_LAT TD9635_LON TD9635_WIND TD9635_PRES TD9635_ROCI NEUMANN_LAT NEUMANN_LON NEUMANN_CLASS NEUMANN_WIND NEUMANN_PRES MLC_LAT MLC_LON MLC_CLASS MLC_WIND MLC_PRES USA_GUST BOM_GUST BOM_GUST_PER REUNION_GUST REUNION_GUST_PER USA_SEAHGT USA_SEARAD_NE USA_SEARAD_SE USA_SEARAD_SW USA_SEARAD_NW STORM_SPEED STORM_DIR
1985179N21115 1985 49 WP MM NOT_NAMED 1985-06-28 00:00:00 TS 21.5000 115.000 main 112 112 __O___________ -1 21.5000 115.000 0 17 997 4 98
1985179N21115 1985 49 WP MM NOT_NAMED 1985-06-28 03:00:00 TS 21.4676 115.237 main 116 116 __P___________ -1 21.4676 115.237 0 17 996 5 102
1985179N21115 1985 49 WP MM NOT_NAMED 1985-06-28 06:00:00 TS 21.4000 115.500 main 137 137 __O___________ -1 21.4000 115.500 0 17 996 6 109
1985179N21115 1985 49 WP MM NOT_NAMED 1985-06-28 09:00:00 TS 21.2849 115.813 main 156 156 __P___________ -1 21.2849 115.813 0 17 996 7 107
1985179N21115 1985 49 WP MM NOT_NAMED 1985-06-28 12:00:00 TS 21.2000 116.200 main 172 172 __O___________ -1 21.2000 116.200 0 17 996 9 93
1985179N21115 1985 49 WP MM NOT_NAMED 1985-06-28 15:00:00 TS 21.2280 116.820 main 192 186 __P___________ -1 21.2280 116.820 0 18 996 9 84
1985179N21115 1985 49 WP MM NOT_NAMED 1985-06-28 18:00:00 TS 21.3000 117.200 main 192 183 __O___________ -1 21.3000 117.200 0 19 996 1 21
1985179N21115 1985 49 WP MM NOT_NAMED 1985-06-28 21:00:00 TS 21.3504 116.863 main 172 154 __P___________ -1 21.3504 116.863 0 19 996 8 277
1985179N21115 1985 49 WP MM NOT_NAMED 1985-06-29 00:00:00 TS 21.4000 116.300 main 154 135 __O___________ -1 21.4000 116.300 0 19 996 8 278
1985179N21115 1985 49 WP MM NOT_NAMED 1985-06-29 03:00:00 TS 21.4647 116.035 main 135 134 __P___________ -1 21.4647 116.035 0 19 995 5 282
1985179N21115 1985 49 WP MM NOT_NAMED 1985-06-29 06:00:00 TS 21.5000 115.800 main 134 127 __O___________ -1 21.5000 115.800 0 19 995 5 272
1985179N21115 1985 49 WP MM NOT_NAMED 1985-06-29 09:00:00 TS 21.4801 115.458 main 127 119 __P___________ -1 21.4801 115.458 0 19 996 7 261
1985179N21115 1985 49 WP MM NOT_NAMED 1985-06-29 12:00:00 TS 21.4000 115.100 main 124 118 __O___________ -1 21.4000 115.100 0 19 997 7 254
1985179N21115 1985 49 WP MM NOT_NAMED 1985-06-29 15:00:00 TS 21.2876 114.732 main 119 119 __P___________ -1 21.2876 114.732 0 21 995 6 242
1985179N21115 1985 49 WP MM NOT_NAMED 1985-06-29 18:00:00 TS 21.1000 114.500 main 135 135 __O___________ -1 21.1000 114.500 1 23 994 6 203
1985179N21115 1985 49 WP MM NOT_NAMED 1985-06-29 21:00:00 TS 20.7397 114.481 main 180 180 __P___________ -1 20.7397 114.481 1 21 995 6 163
1985179N21115 1985 49 WP MM NOT_NAMED 1985-06-30 00:00:00 TS 20.5000 114.700 main 205 197 __O___________ -1 20.5000 114.700 0 19 997 6 97
1985179N21115 1985 49 WP MM NOT_NAMED 1985-06-30 03:00:00 TS 20.6674 115.110 main 197 182 __P___________ -1 20.6674 115.110 0 19 997 11 62
1985179N21115 1985 49 WP MM NOT_NAMED 1985-06-30 06:00:00 TS 21.0000 115.700 main 186 164 __O___________ -1 21.0000 115.700 0 19 997 14 63
1985179N21115 1985 49 WP MM NOT_NAMED 1985-06-30 09:00:00 TS 21.2879 116.399 main 168 161 __P___________ -1 21.2879 116.399 0 19 997 14 69
1985179N21115 1985 49 WP MM NOT_NAMED 1985-06-30 12:00:00 TS 21.5000 117.100 main 168 168 __O___________ -1 21.5000 117.100 0 19 998 12 79
1985179N21115 1985 49 WP MM NOT_NAMED 1985-06-30 15:00:00 TS 21.5148 117.668 main 199 199 __P___________ -1 21.5148 117.668 0 19 999 9 90
1985179N21115 1985 49 WP MM NOT_NAMED 1985-06-30 18:00:00 TS 21.5000 118.100 main 227 220 __O___________ -1 21.5000 118.100 0 19 1000 7 83
1985179N21115 1985 49 WP MM NOT_NAMED 1985-06-30 21:00:00 TS 21.6048 118.410 main 220 191 __P___________ -1 21.6048 118.410 0 19 1000 6 57
1985179N21115 1985 49 WP MM NOT_NAMED 1985-07-01 00:00:00 TS 21.8000 118.600 main 191 160 __O___________ -1 21.8000 118.600 0 19 1000 6 35
1985179N21115 1985 49 WP MM NOT_NAMED 1985-07-01 03:00:00 TS 22.0849 118.767 main 160 150 __P___________ -1 22.0849 118.767 0 19 1000 6 17
1985179N21115 1985 49 WP MM NOT_NAMED 1985-07-01 06:00:00 TS 22.4000 118.800 main 150 147 __O___________ -1 22.4000 118.800 0 19 1000 6 348
1985179N21115 1985 49 WP MM NOT_NAMED 1985-07-01 09:00:00 TS 22.6651 118.630 main 151 121 __P___________ -1 22.6651 118.630 0 21 999 6 324
1985179N21115 1985 49 WP MM NOT_NAMED 1985-07-01 12:00:00 TS 22.9000 118.400 main 121 97 __O___________ -1 22.9000 118.400 1 23 998 5 324
1985179N21115 1985 49 WP MM NOT_NAMED 1985-07-01 15:00:00 TS 23.1075 118.285 main 97 75 __P___________ -1 23.1075 118.285 1 21 998 4 335
1985179N21115 1985 49 WP MM NOT_NAMED 1985-07-01 18:00:00 TS 23.3000 118.200 main 75 54 __O___________ -1 23.3000 118.200 0 19 998 4 337
1985179N21115 1985 49 WP MM NOT_NAMED 1985-07-01 21:00:00 TS 23.4975 118.105 main 54 30 __P___________ -1 23.4975 118.105 0 19 999 4 336
1985179N21115 1985 49 WP MM NOT_NAMED 1985-07-02 00:00:00 TS 23.7000 118.000 main 30 __O___________ -1 23.7000 118.000 0 19 1000 5 335

Digital Typhoon Data and Search

About IBTrACS Database

This database is a web-friendly format of International Best Track Archive for Climate Stewardship (IBTrACS), a global best track data archive curated by NOAA dating back to 1842.

Updated: 2021-11-26